sensor_id;sensor_type;location;lat;lon;timestamp;pressure;altitude;pressure_sealevel;temperature;humidity
36834;BME280;48003;52.084;5.224;2023-02-01T00:01:24;102022.0;;;8.5;66.37
36834;BME280;48003;52.084;5.224;2023-02-01T00:03:01;102031.0;;;8.57;66.36
36834;BME280;48003;52.084;5.224;2023-02-01T00:04:36;102026.0;;;8.31;66.94
36834;BME280;48003;52.084;5.224;2023-02-01T00:07:49;102024.0;;;8.39;67.36
36834;BME280;48003;52.084;5.224;2023-02-01T00:09:26;102022.0;;;8.74;66.08
36834;BME280;48003;52.084;5.224;2023-02-01T00:11:04;102026.0;;;8.76;65.87
36834;BME280;48003;52.084;5.224;2023-02-01T00:14:18;102030.0;;;8.92;65.5
36834;BME280;48003;52.084;5.224;2023-02-01T00:15:54;102031.0;;;8.98;65.31
36834;BME280;48003;52.084;5.224;2023-02-01T00:17:30;102036.0;;;9.08;64.78
36834;BME280;48003;52.084;5.224;2023-02-01T00:20:48;102028.0;;;8.93;65.3
36834;BME280;48003;52.084;5.224;2023-02-01T00:22:24;102028.0;;;9.02;65.11
36834;BME280;48003;52.084;5.224;2023-02-01T00:25:39;102023.0;;;8.72;66.41
36834;BME280;48003;52.084;5.224;2023-02-01T00:28:53;102018.0;;;8.64;66.77
36834;BME280;48003;52.084;5.224;2023-02-01T00:30:29;102018.0;;;8.88;65.99
36834;BME280;48003;52.084;5.224;2023-02-01T00:32:05;102020.0;;;8.83;66.23
36834;BME280;48003;52.084;5.224;2023-02-01T00:35:18;102023.0;;;9.0;65.77
36834;BME280;48003;52.084;5.224;2023-02-01T00:36:54;102015.0;;;8.94;65.77
36834;BME280;48003;52.084;5.224;2023-02-01T00:38:31;102008.0;;;8.89;66.02
36834;BME280;48003;52.084;5.224;2023-02-01T00:40:09;102008.0;;;8.99;65.95
36834;BME280;48003;52.084;5.224;2023-02-01T00:43:22;102015.0;;;8.91;65.98
36834;BME280;48003;52.084;5.224;2023-02-01T00:44:58;102018.0;;;8.94;66.02
36834;BME280;48003;52.084;5.224;2023-02-01T00:46:35;102020.0;;;8.92;65.89
36834;BME280;48003;52.084;5.224;2023-02-01T00:49:48;102020.0;;;8.94;66.13
36834;BME280;48003;52.084;5.224;2023-02-01T00:51:26;102023.0;;;8.93;65.97
36834;BME280;48003;52.084;5.224;2023-02-01T00:53:03;102021.0;;;8.88;66.0
36834;BME280;48003;52.084;5.224;2023-02-01T00:56:15;102025.0;;;8.84;66.05
36834;BME280;48003;52.084;5.224;2023-02-01T00:57:52;102020.0;;;8.81;66.11
36834;BME280;48003;52.084;5.224;2023-02-01T00:59:28;102018.0;;;8.64;66.41
36834;BME280;48003;52.084;5.224;2023-02-01T01:01:07;102014.0;;;8.73;66.3
36834;BME280;48003;52.084;5.224;2023-02-01T01:04:20;102008.0;;;8.89;65.73
36834;BME280;48003;52.084;5.224;2023-02-01T01:05:56;102016.0;;;8.96;65.49
36834;BME280;48003;52.084;5.224;2023-02-01T01:07:33;102010.0;;;8.96;65.3
36834;BME280;48003;52.084;5.224;2023-02-01T01:10:45;102011.0;;;8.94;65.41
36834;BME280;48003;52.084;5.224;2023-02-01T01:12:21;102006.0;;;8.91;65.27
36834;BME280;48003;52.084;5.224;2023-02-01T01:13:59;102005.0;;;8.93;65.1
36834;BME280;48003;52.084;5.224;2023-02-01T01:17:13;102007.0;;;9.27;63.83
36834;BME280;48003;52.084;5.224;2023-02-01T01:18:49;102005.0;;;9.1;63.91
36834;BME280;48003;52.084;5.224;2023-02-01T01:20:27;102009.0;;;9.11;64.02
36834;BME280;48003;52.084;5.224;2023-02-01T01:22:03;102005.0;;;9.08;63.77
36834;BME280;48003;52.084;5.224;2023-02-01T01:25:17;102005.0;;;8.96;63.91
36834;BME280;48003;52.084;5.224;2023-02-01T01:26:53;102001.0;;;9.16;63.61
36834;BME280;48003;52.084;5.224;2023-02-01T01:28:29;102006.0;;;9.14;63.43
36834;BME280;48003;52.084;5.224;2023-02-01T01:31:43;102005.0;;;8.96;63.97
36834;BME280;48003;52.084;5.224;2023-02-01T01:33:19;102005.0;;;9.09;63.61
36834;BME280;48003;52.084;5.224;2023-02-01T01:34:55;101999.0;;;9.02;63.61
36834;BME280;48003;52.084;5.224;2023-02-01T01:38:09;101999.0;;;9.08;63.73
36834;BME280;48003;52.084;5.224;2023-02-01T01:39:45;102000.0;;;9.13;63.48
36834;BME280;48003;52.084;5.224;2023-02-01T01:41:23;101995.0;;;9.16;63.52
36834;BME280;48003;52.084;5.224;2023-02-01T01:43:00;101996.0;;;9.02;63.95
36834;BME280;48003;52.084;5.224;2023-02-01T01:46:57;102006.0;;;9.06;63.59
36834;BME280;48003;52.084;5.224;2023-02-01T01:48:33;101997.0;;;9.06;63.82
36834;BME280;48003;52.084;5.224;2023-02-01T01:50:14;101999.0;;;9.08;63.87
36834;BME280;48003;52.084;5.224;2023-02-01T01:51:56;101988.0;;;9.06;64.06
36834;BME280;48003;52.084;5.224;2023-02-01T01:53:43;101990.0;;;9.3;63.34
36834;BME280;48003;52.084;5.224;2023-02-01T01:57:03;101987.0;;;9.05;64.1
36834;BME280;48003;52.084;5.224;2023-02-01T01:58:42;101983.0;;;9.06;64.3
36834;BME280;48003;52.084;5.224;2023-02-01T02:00:20;101982.0;;;9.11;64.41
36834;BME280;48003;52.084;5.224;2023-02-01T02:01:57;101975.0;;;9.11;64.31
36834;BME280;48003;52.084;5.224;2023-02-01T02:05:16;101972.0;;;9.21;64.16
36834;BME280;48003;52.084;5.224;2023-02-01T02:06:59;101978.0;;;9.23;64.36
36834;BME280;48003;52.084;5.224;2023-02-01T02:08:37;101975.0;;;9.33;64.02
36834;BME280;48003;52.084;5.224;2023-02-01T02:10:15;101967.0;;;9.21;64.64
36834;BME280;48003;52.084;5.224;2023-02-01T02:13:31;101973.0;;;9.11;65.16
36834;BME280;48003;52.084;5.224;2023-02-01T02:15:12;101963.0;;;9.16;65.16
36834;BME280;48003;52.084;5.224;2023-02-01T02:16:58;101978.0;;;9.14;65.41
36834;BME280;48003;52.084;5.224;2023-02-01T02:19:09;101968.0;;;9.1;65.66
36834;BME280;48003;52.084;5.224;2023-02-01T02:21:02;101966.0;;;9.09;65.72
36834;BME280;48003;52.084;5.224;2023-02-01T02:23:17;101951.0;;;9.22;65.64
36834;BME280;48003;52.084;5.224;2023-02-01T02:26:46;101961.0;;;9.32;65.35
36834;BME280;48003;52.084;5.224;2023-02-01T02:29:03;101950.0;;;9.36;65.45
36834;BME280;48003;52.084;5.224;2023-02-01T02:32:24;101955.0;;;9.07;66.35
36834;BME280;48003;52.084;5.224;2023-02-01T02:34:54;101941.0;;;9.31;65.91
36834;BME280;48003;52.084;5.224;2023-02-01T02:36:42;101949.0;;;9.4;65.55
36834;BME280;48003;52.084;5.224;2023-02-01T02:38:26;101939.0;;;9.39;65.77
36834;BME280;48003;52.084;5.224;2023-02-01T02:40:15;101942.0;;;9.39;65.58
36834;BME280;48003;52.084;5.224;2023-02-01T02:47:31;101930.0;;;9.55;65.17
36834;BME280;48003;52.084;5.224;2023-02-01T02:49:42;101928.0;;;9.59;65.13
36834;BME280;48003;52.084;5.224;2023-02-01T02:55:37;101941.0;;;9.49;65.06
36834;BME280;48003;52.084;5.224;2023-02-01T03:05:39;101912.0;;;9.53;65.02
36834;BME280;48003;52.084;5.224;2023-02-01T03:07:52;101903.0;;;9.46;65.44
36834;BME280;48003;52.084;5.224;2023-02-01T03:09:37;101914.0;;;9.34;65.55
36834;BME280;48003;52.084;5.224;2023-02-01T03:11:16;101921.0;;;9.3;65.44
36834;BME280;48003;52.084;5.224;2023-02-01T03:13:02;101923.0;;;9.26;65.62
36834;BME280;48003;52.084;5.224;2023-02-01T03:16:25;101917.0;;;9.48;65.1
36834;BME280;48003;52.084;5.224;2023-02-01T03:18:07;101915.0;;;9.46;65.06
36834;BME280;48003;52.084;5.224;2023-02-01T03:19:51;101912.0;;;9.47;64.83
36834;BME280;48003;52.084;5.224;2023-02-01T03:21:32;101908.0;;;9.39;64.89
36834;BME280;48003;52.084;5.224;2023-02-01T03:24:59;101914.0;;;9.31;64.81
36834;BME280;48003;52.084;5.224;2023-02-01T03:26:42;101909.0;;;9.34;65.1
36834;BME280;48003;52.084;5.224;2023-02-01T03:28:26;101905.0;;;9.42;64.72
36834;BME280;48003;52.084;5.224;2023-02-01T03:30:12;101901.0;;;9.35;64.91
36834;BME280;48003;52.084;5.224;2023-02-01T03:31:53;101907.0;;;9.25;65.05
36834;BME280;48003;52.084;5.224;2023-02-01T03:35:07;101913.0;;;9.23;64.97
36834;BME280;48003;52.084;5.224;2023-02-01T03:36:48;101914.0;;;9.49;64.44
36834;BME280;48003;52.084;5.224;2023-02-01T03:38:29;101924.0;;;9.27;64.94
36834;BME280;48003;52.084;5.224;2023-02-01T03:40:08;101917.0;;;9.25;65.23
36834;BME280;48003;52.084;5.224;2023-02-01T03:43:30;101914.0;;;9.27;65.16
36834;BME280;48003;52.084;5.224;2023-02-01T03:45:13;101913.0;;;9.14;65.5
36834;BME280;48003;52.084;5.224;2023-02-01T03:46:58;101913.0;;;9.27;65.3
36834;BME280;48003;52.084;5.224;2023-02-01T03:48:36;101918.0;;;9.22;65.61
36834;BME280;48003;52.084;5.224;2023-02-01T03:51:58;101921.0;;;9.36;65.27
36834;BME280;48003;52.084;5.224;2023-02-01T03:53:36;101933.0;;;9.23;65.61
36834;BME280;48003;52.084;5.224;2023-02-01T03:55:18;101928.0;;;9.36;65.35
36834;BME280;48003;52.084;5.224;2023-02-01T03:57:00;101933.0;;;9.25;65.75
36834;BME280;48003;52.084;5.224;2023-02-01T04:00:20;101923.0;;;9.18;65.98
36834;BME280;48003;52.084;5.224;2023-02-01T04:01:59;101931.0;;;9.21;66.09
36834;BME280;48003;52.084;5.224;2023-02-01T04:03:35;101930.0;;;9.18;66.06
36834;BME280;48003;52.084;5.224;2023-02-01T04:05:11;101916.0;;;9.33;65.72
36834;BME280;48003;52.084;5.224;2023-02-01T04:08:25;101931.0;;;9.31;65.63
36834;BME280;48003;52.084;5.224;2023-02-01T04:10:01;101931.0;;;9.23;65.72
36834;BME280;48003;52.084;5.224;2023-02-01T04:11:38;101935.0;;;9.31;65.58
36834;BME280;48003;52.084;5.224;2023-02-01T04:14:50;101920.0;;;9.31;65.36
36834;BME280;48003;52.084;5.224;2023-02-01T04:16:27;101915.0;;;9.33;65.3
36834;BME280;48003;52.084;5.224;2023-02-01T04:18:04;101917.0;;;9.39;64.84
36834;BME280;48003;52.084;5.224;2023-02-01T04:21:17;101912.0;;;9.3;64.63
36834;BME280;48003;52.084;5.224;2023-02-01T04:22:53;101921.0;;;9.4;64.44
36834;BME280;48003;52.084;5.224;2023-02-01T04:26:07;101915.0;;;9.42;64.53
36834;BME280;48003;52.084;5.224;2023-02-01T04:29:19;101921.0;;;9.36;64.62
36834;BME280;48003;52.084;5.224;2023-02-01T04:30:56;101922.0;;;9.6;64.09
36834;BME280;48003;52.084;5.224;2023-02-01T04:32:32;101932.0;;;9.49;64.16
36834;BME280;48003;52.084;5.224;2023-02-01T04:35:45;101921.0;;;9.55;64.08
36834;BME280;48003;52.084;5.224;2023-02-01T04:37:21;101920.0;;;9.75;63.73
36834;BME280;48003;52.084;5.224;2023-02-01T04:38:57;101927.0;;;9.5;64.35
36834;BME280;48003;52.084;5.224;2023-02-01T04:42:09;101927.0;;;9.46;64.49
36834;BME280;48003;52.084;5.224;2023-02-01T04:43:46;101930.0;;;9.41;64.72
36834;BME280;48003;52.084;5.224;2023-02-01T04:45:22;101936.0;;;9.36;64.99
36834;BME280;48003;52.084;5.224;2023-02-01T04:46:58;101927.0;;;9.39;65.05
36834;BME280;48003;52.084;5.224;2023-02-01T04:50:11;101920.0;;;9.41;64.88
36834;BME280;48003;52.084;5.224;2023-02-01T04:51:47;101912.0;;;9.48;64.8
36834;BME280;48003;52.084;5.224;2023-02-01T04:53:24;101907.0;;;9.53;64.69
36834;BME280;48003;52.084;5.224;2023-02-01T04:56:40;101905.0;;;9.39;64.87
36834;BME280;48003;52.084;5.224;2023-02-01T04:58:16;101905.0;;;9.38;65.02
36834;BME280;48003;52.084;5.224;2023-02-01T04:59:52;101900.0;;;9.58;64.58
36834;BME280;48003;52.084;5.224;2023-02-01T05:03:06;101907.0;;;9.36;64.95
36834;BME280;48003;52.084;5.224;2023-02-01T05:04:43;101910.0;;;9.25;65.03
36834;BME280;48003;52.084;5.224;2023-02-01T05:06:19;101902.0;;;9.23;65.35
36834;BME280;48003;52.084;5.224;2023-02-01T05:07:55;101905.0;;;9.31;65.03
36834;BME280;48003;52.084;5.224;2023-02-01T05:13:48;101914.0;;;9.23;65.27
36834;BME280;48003;52.084;5.224;2023-02-01T05:15:24;101906.0;;;9.22;65.37
36834;BME280;48003;52.084;5.224;2023-02-01T05:16:59;101914.0;;;9.01;66.02
36834;BME280;48003;52.084;5.224;2023-02-01T05:18:35;101899.0;;;9.18;65.74
36834;BME280;48003;52.084;5.224;2023-02-01T05:21:48;101900.0;;;9.11;65.91
36834;BME280;48003;52.084;5.224;2023-02-01T05:23:24;101905.0;;;8.96;66.55
36834;BME280;48003;52.084;5.224;2023-02-01T05:25:01;101903.0;;;9.03;66.37
36834;BME280;48003;52.084;5.224;2023-02-01T05:28:15;101911.0;;;9.13;66.25
36834;BME280;48003;52.084;5.224;2023-02-01T05:29:51;101926.0;;;9.11;66.3
36834;BME280;48003;52.084;5.224;2023-02-01T05:31:28;101925.0;;;9.22;66.09
36834;BME280;48003;52.084;5.224;2023-02-01T05:33:04;101923.0;;;9.15;66.25
36834;BME280;48003;52.084;5.224;2023-02-01T05:36:16;101926.0;;;8.97;66.88
36834;BME280;48003;52.084;5.224;2023-02-01T05:37:53;101927.0;;;9.14;66.39
36834;BME280;48003;52.084;5.224;2023-02-01T05:39:29;101925.0;;;9.06;66.55
36834;BME280;48003;52.084;5.224;2023-02-01T05:42:41;101934.0;;;9.05;66.55
36834;BME280;48003;52.084;5.224;2023-02-01T05:44:17;101934.0;;;9.08;66.72
36834;BME280;48003;52.084;5.224;2023-02-01T05:45:54;101930.0;;;9.13;66.62
36834;BME280;48003;52.084;5.224;2023-02-01T05:49:06;101930.0;;;9.17;66.55
36834;BME280;48003;52.084;5.224;2023-02-01T05:50:42;101932.0;;;9.22;66.3
36834;BME280;48003;52.084;5.224;2023-02-01T05:52:19;101926.0;;;9.13;66.69
36834;BME280;48003;52.084;5.224;2023-02-01T05:53:55;101927.0;;;9.11;66.97
36834;BME280;48003;52.084;5.224;2023-02-01T05:57:08;101925.0;;;8.99;67.17
36834;BME280;48003;52.084;5.224;2023-02-01T05:58:44;101928.0;;;9.07;67.27
36834;BME280;48003;52.084;5.224;2023-02-01T06:00:22;101917.0;;;8.97;67.59
36834;BME280;48003;52.084;5.224;2023-02-01T06:03:35;101922.0;;;9.14;67.02
36834;BME280;48003;52.084;5.224;2023-02-01T06:05:12;101910.0;;;9.06;67.23
36834;BME280;48003;52.084;5.224;2023-02-01T06:06:50;101911.0;;;8.98;67.6
36834;BME280;48003;52.084;5.224;2023-02-01T06:10:03;101921.0;;;9.08;67.37
36834;BME280;48003;52.084;5.224;2023-02-01T06:11:40;101919.0;;;8.8;68.28
36834;BME280;48003;52.084;5.224;2023-02-01T06:13:17;101928.0;;;8.98;67.95
36834;BME280;48003;52.084;5.224;2023-02-01T06:14:54;101932.0;;;9.06;67.7
36834;BME280;48003;52.084;5.224;2023-02-01T06:18:07;101930.0;;;9.05;67.66
36834;BME280;48003;52.084;5.224;2023-02-01T06:19:44;101942.0;;;9.0;67.77
36834;BME280;48003;52.084;5.224;2023-02-01T06:21:23;101931.0;;;9.01;67.91
36834;BME280;48003;52.084;5.224;2023-02-01T06:24:36;101934.0;;;8.84;68.49
36834;BME280;48003;52.084;5.224;2023-02-01T06:26:12;101939.0;;;9.0;68.13
36834;BME280;48003;52.084;5.224;2023-02-01T06:27:48;101938.0;;;8.83;68.55
36834;BME280;48003;52.084;5.224;2023-02-01T06:31:03;101946.0;;;9.07;68.02
36834;BME280;48003;52.084;5.224;2023-02-01T06:32:41;101937.0;;;8.9;68.39
36834;BME280;48003;52.084;5.224;2023-02-01T06:34:18;101938.0;;;9.07;67.98
36834;BME280;48003;52.084;5.224;2023-02-01T06:35:57;101943.0;;;9.0;68.16
36834;BME280;48003;52.084;5.224;2023-02-01T06:39:16;101953.0;;;8.9;68.44
36834;BME280;48003;52.084;5.224;2023-02-01T06:40:52;101942.0;;;8.88;68.55
36834;BME280;48003;52.084;5.224;2023-02-01T06:42:30;101943.0;;;8.9;68.36
36834;BME280;48003;52.084;5.224;2023-02-01T06:44:06;101946.0;;;8.99;68.24
36834;BME280;48003;52.084;5.224;2023-02-01T06:47:18;101940.0;;;8.8;68.69
36834;BME280;48003;52.084;5.224;2023-02-01T06:48:54;101951.0;;;8.76;68.88
36834;BME280;48003;52.084;5.224;2023-02-01T06:50:30;101945.0;;;8.8;68.81
36834;BME280;48003;52.084;5.224;2023-02-01T06:53:43;101946.0;;;8.73;69.06
36834;BME280;48003;52.084;5.224;2023-02-01T06:55:19;101942.0;;;8.73;69.14
36834;BME280;48003;52.084;5.224;2023-02-01T06:56:55;101946.0;;;8.83;69.16
36834;BME280;48003;52.084;5.224;2023-02-01T07:00:10;101942.0;;;8.96;68.69
36834;BME280;48003;52.084;5.224;2023-02-01T07:01:46;101941.0;;;8.86;69.08
36834;BME280;48003;52.084;5.224;2023-02-01T07:03:22;101943.0;;;8.8;69.3
36834;BME280;48003;52.084;5.224;2023-02-01T07:06:35;101946.0;;;8.73;69.55
36834;BME280;48003;52.084;5.224;2023-02-01T07:08:11;101944.0;;;8.81;69.33
36834;BME280;48003;52.084;5.224;2023-02-01T07:09:47;101939.0;;;8.91;69.02
36834;BME280;48003;52.084;5.224;2023-02-01T07:11:23;101943.0;;;8.93;68.88
36834;BME280;48003;52.084;5.224;2023-02-01T07:14:36;101938.0;;;8.9;68.87
36834;BME280;48003;52.084;5.224;2023-02-01T07:16:14;101936.0;;;9.0;68.58
36834;BME280;48003;52.084;5.224;2023-02-01T07:17:54;101933.0;;;9.08;68.34
36834;BME280;48003;52.084;5.224;2023-02-01T07:21:07;101930.0;;;8.93;68.41
36834;BME280;48003;52.084;5.224;2023-02-01T07:22:44;101939.0;;;8.96;68.33
36834;BME280;48003;52.084;5.224;2023-02-01T07:24:21;101941.0;;;9.03;68.14
36834;BME280;48003;52.084;5.224;2023-02-01T07:26:00;101939.0;;;9.14;67.88
36834;BME280;48003;52.084;5.224;2023-02-01T07:29:13;101938.0;;;8.99;68.12
36834;BME280;48003;52.084;5.224;2023-02-01T07:30:51;101944.0;;;8.97;68.16
36834;BME280;48003;52.084;5.224;2023-02-01T07:32:28;101939.0;;;8.99;68.05
36834;BME280;48003;52.084;5.224;2023-02-01T07:35:41;101935.0;;;8.91;68.27
36834;BME280;48003;52.084;5.224;2023-02-01T07:37:18;101942.0;;;8.99;68.16
36834;BME280;48003;52.084;5.224;2023-02-01T07:38:54;101958.0;;;8.93;68.3
36834;BME280;48003;52.084;5.224;2023-02-01T07:42:07;101942.0;;;8.94;68.33
36834;BME280;48003;52.084;5.224;2023-02-01T07:43:43;101950.0;;;8.98;68.14
36834;BME280;48003;52.084;5.224;2023-02-01T07:45:20;101942.0;;;9.03;68.09
36834;BME280;48003;52.084;5.224;2023-02-01T07:46:57;101946.0;;;9.05;67.99
36834;BME280;48003;52.084;5.224;2023-02-01T07:50:10;101947.0;;;9.07;67.97
36834;BME280;48003;52.084;5.224;2023-02-01T07:51:46;101946.0;;;9.03;68.05
36834;BME280;48003;52.084;5.224;2023-02-01T07:53:22;101945.0;;;9.08;68.03
36834;BME280;48003;52.084;5.224;2023-02-01T07:56:34;101948.0;;;9.0;68.36
36834;BME280;48003;52.084;5.224;2023-02-01T07:58:11;101950.0;;;8.98;68.5
36834;BME280;48003;52.084;5.224;2023-02-01T08:01:22;101940.0;;;8.94;68.55
36834;BME280;48003;52.084;5.224;2023-02-01T08:03:21;101956.0;;;8.93;68.78
36834;BME280;48003;52.084;5.224;2023-02-01T08:04:57;101961.0;;;8.89;69.08
36834;BME280;48003;52.084;5.224;2023-02-01T08:06:34;101967.0;;;8.93;68.84
36834;BME280;48003;52.084;5.224;2023-02-01T08:08:10;101969.0;;;8.81;69.34
36834;BME280;48003;52.084;5.224;2023-02-01T08:11:23;101966.0;;;9.02;68.77
36834;BME280;48003;52.084;5.224;2023-02-01T08:13:01;101967.0;;;9.02;68.44
36834;BME280;48003;52.084;5.224;2023-02-01T08:14:41;101962.0;;;9.0;68.5
36834;BME280;48003;52.084;5.224;2023-02-01T08:16:19;101953.0;;;9.06;68.49
36834;BME280;48003;52.084;5.224;2023-02-01T08:19:32;101950.0;;;8.98;68.48
36834;BME280;48003;52.084;5.224;2023-02-01T08:21:11;101956.0;;;8.92;68.69
36834;BME280;48003;52.084;5.224;2023-02-01T08:22:48;101953.0;;;8.93;68.75
36834;BME280;48003;52.084;5.224;2023-02-01T08:26:06;101953.0;;;9.01;68.61
36834;BME280;48003;52.084;5.224;2023-02-01T08:27:48;101961.0;;;9.09;68.39
36834;BME280;48003;52.084;5.224;2023-02-01T08:29:24;101953.0;;;9.0;68.63
36834;BME280;48003;52.084;5.224;2023-02-01T08:31:04;101941.0;;;9.14;68.25
36834;BME280;48003;52.084;5.224;2023-02-01T08:34:17;101947.0;;;9.09;68.39
36834;BME280;48003;52.084;5.224;2023-02-01T08:35:53;101947.0;;;9.03;68.47
36834;BME280;48003;52.084;5.224;2023-02-01T08:37:28;101939.0;;;8.98;68.89
36834;BME280;48003;52.084;5.224;2023-02-01T08:40:46;101945.0;;;8.97;69.03
36834;BME280;48003;52.084;5.224;2023-02-01T08:42:54;101940.0;;;8.98;69.05
36834;BME280;48003;52.084;5.224;2023-02-01T08:44:31;101945.0;;;8.81;69.66
36834;BME280;48003;52.084;5.224;2023-02-01T08:46:07;101936.0;;;8.9;69.72
36834;BME280;48003;52.084;5.224;2023-02-01T08:47:47;101935.0;;;8.82;70.08
36834;BME280;48003;52.084;5.224;2023-02-01T08:51:01;101933.0;;;9.07;69.37
36834;BME280;48003;52.084;5.224;2023-02-01T08:52:38;101945.0;;;8.93;69.69
36834;BME280;48003;52.084;5.224;2023-02-01T08:54:14;101943.0;;;9.13;69.44
36834;BME280;48003;52.084;5.224;2023-02-01T08:57:27;101949.0;;;9.08;69.38
36834;BME280;48003;52.084;5.224;2023-02-01T08:59:03;101950.0;;;9.06;69.24
36834;BME280;48003;52.084;5.224;2023-02-01T09:00:40;101946.0;;;9.03;69.42
36834;BME280;48003;52.084;5.224;2023-02-01T09:02:17;101948.0;;;9.14;69.17
36834;BME280;48003;52.084;5.224;2023-02-01T09:05:31;101938.0;;;9.28;68.77
36834;BME280;48003;52.084;5.224;2023-02-01T09:07:07;101942.0;;;9.14;69.44
36834;BME280;48003;52.084;5.224;2023-02-01T09:08:44;101930.0;;;9.16;69.45
36834;BME280;48003;52.084;5.224;2023-02-01T09:11:56;101926.0;;;8.91;70.33
36834;BME280;48003;52.084;5.224;2023-02-01T09:13:34;101939.0;;;9.16;69.2
36834;BME280;48003;52.084;5.224;2023-02-01T09:15:10;101927.0;;;9.19;69.11
36834;BME280;48003;52.084;5.224;2023-02-01T09:18:23;101923.0;;;9.32;68.81
36834;BME280;48003;52.084;5.224;2023-02-01T09:20:01;101914.0;;;9.5;68.42
36834;BME280;48003;52.084;5.224;2023-02-01T09:21:37;101918.0;;;9.5;68.14
36834;BME280;48003;52.084;5.224;2023-02-01T09:23:14;101916.0;;;9.49;68.47
36834;BME280;48003;52.084;5.224;2023-02-01T09:26:27;101915.0;;;9.64;67.77
36834;BME280;48003;52.084;5.224;2023-02-01T09:28:06;101922.0;;;9.6;67.64
36834;BME280;48003;52.084;5.224;2023-02-01T09:29:42;101912.0;;;9.63;67.8
36834;BME280;48003;52.084;5.224;2023-02-01T09:32:55;101925.0;;;9.69;67.52
36834;BME280;48003;52.084;5.224;2023-02-01T09:34:31;101923.0;;;9.77;66.91
36834;BME280;48003;52.084;5.224;2023-02-01T09:36:09;101923.0;;;9.82;66.75
36834;BME280;48003;52.084;5.224;2023-02-01T09:37:45;101925.0;;;9.81;66.94
36834;BME280;48003;52.084;5.224;2023-02-01T09:40:59;101922.0;;;9.83;66.77
36834;BME280;48003;52.084;5.224;2023-02-01T09:42:49;101931.0;;;9.68;67.16
36834;BME280;48003;52.084;5.224;2023-02-01T09:44:45;101922.0;;;9.75;67.22
36834;BME280;48003;52.084;5.224;2023-02-01T09:47:20;101918.0;;;9.55;67.91
36834;BME280;48003;52.084;5.224;2023-02-01T09:49:05;101927.0;;;9.67;67.49
36834;BME280;48003;52.084;5.224;2023-02-01T09:50:55;101926.0;;;9.89;67.2
36834;BME280;48003;52.084;5.224;2023-02-01T09:52:36;101916.0;;;9.94;67.19
36834;BME280;48003;52.084;5.224;2023-02-01T09:54:33;101918.0;;;9.71;67.81
36834;BME280;48003;52.084;5.224;2023-02-01T09:58:02;101923.0;;;9.89;67.3
36834;BME280;48003;52.084;5.224;2023-02-01T09:59:43;101923.0;;;9.88;67.12
36834;BME280;48003;52.084;5.224;2023-02-01T10:01:24;101934.0;;;9.8;67.5
36834;BME280;48003;52.084;5.224;2023-02-01T10:03:02;101924.0;;;9.89;67.03
36834;BME280;48003;52.084;5.224;2023-02-01T10:06:28;101916.0;;;10.09;66.62
36834;BME280;48003;52.084;5.224;2023-02-01T10:08:47;101910.0;;;9.97;66.58
36834;BME280;48003;52.084;5.224;2023-02-01T10:10:38;101918.0;;;9.89;66.62
36834;BME280;48003;52.084;5.224;2023-02-01T10:12:34;101920.0;;;9.84;66.72
36834;BME280;48003;52.084;5.224;2023-02-01T10:16:06;101932.0;;;9.66;68.45
36834;BME280;48003;52.084;5.224;2023-02-01T10:17:57;101926.0;;;9.68;69.36
36834;BME280;48003;52.084;5.224;2023-02-01T10:19:46;101930.0;;;9.69;69.77
36834;BME280;48003;52.084;5.224;2023-02-01T10:23:50;101921.0;;;9.69;71.05
36834;BME280;48003;52.084;5.224;2023-02-01T10:26:18;101928.0;;;9.5;72.14
36834;BME280;48003;52.084;5.224;2023-02-01T10:29:39;101926.0;;;9.51;71.58
36834;BME280;48003;52.084;5.224;2023-02-01T10:31:18;101939.0;;;9.32;71.97
36834;BME280;48003;52.084;5.224;2023-02-01T10:33:07;101928.0;;;9.25;72.3
36834;BME280;48003;52.084;5.224;2023-02-01T10:34:57;101938.0;;;9.35;71.94
36834;BME280;48003;52.084;5.224;2023-02-01T10:36:39;101940.0;;;9.33;71.95
36834;BME280;48003;52.084;5.224;2023-02-01T10:40:09;101931.0;;;9.38;72.02
36834;BME280;48003;52.084;5.224;2023-02-01T10:41:57;101923.0;;;9.34;71.24
36834;BME280;48003;52.084;5.224;2023-02-01T10:43:34;101932.0;;;9.33;71.3
36834;BME280;48003;52.084;5.224;2023-02-01T10:45:13;101930.0;;;9.42;71.37
36834;BME280;48003;52.084;5.224;2023-02-01T10:46:51;101923.0;;;9.46;70.56
36834;BME280;48003;52.084;5.224;2023-02-01T10:50:15;101919.0;;;9.39;70.58
36834;BME280;48003;52.084;5.224;2023-02-01T10:51:59;101919.0;;;9.39;70.22
36834;BME280;48003;52.084;5.224;2023-02-01T10:53:42;101915.0;;;9.47;70.33
36834;BME280;48003;52.084;5.224;2023-02-01T10:55:33;101919.0;;;9.26;71.05
36834;BME280;48003;52.084;5.224;2023-02-01T10:59:01;101901.0;;;9.57;70.03
36834;BME280;48003;52.084;5.224;2023-02-01T11:00:44;101916.0;;;9.59;69.33
36834;BME280;48003;52.084;5.224;2023-02-01T11:02:25;101909.0;;;9.61;69.33
36834;BME280;48003;52.084;5.224;2023-02-01T11:04:05;101899.0;;;9.73;68.86
36834;BME280;48003;52.084;5.224;2023-02-01T11:05:46;101905.0;;;9.81;68.66
36834;BME280;48003;52.084;5.224;2023-02-01T11:09:10;101891.0;;;9.8;68.58
36834;BME280;48003;52.084;5.224;2023-02-01T11:10:58;101895.0;;;9.74;67.91
36834;BME280;48003;52.084;5.224;2023-02-01T11:12:36;101890.0;;;9.63;70.05
36834;BME280;48003;52.084;5.224;2023-02-01T11:14:15;101912.0;;;9.68;71.97
36834;BME280;48003;52.084;5.224;2023-02-01T11:17:34;101906.0;;;9.67;72.16
36834;BME280;48003;52.084;5.224;2023-02-01T11:19:16;101907.0;;;9.68;71.8
36834;BME280;48003;52.084;5.224;2023-02-01T11:20:53;101899.0;;;9.56;71.69
36834;BME280;48003;52.084;5.224;2023-02-01T11:22:30;101895.0;;;9.4;72.3
36834;BME280;48003;52.084;5.224;2023-02-01T11:26:02;101898.0;;;9.22;72.55
36834;BME280;48003;52.084;5.224;2023-02-01T11:27:47;101899.0;;;9.44;72.81
36834;BME280;48003;52.084;5.224;2023-02-01T11:29:35;101894.0;;;9.59;72.41
36834;BME280;48003;52.084;5.224;2023-02-01T11:31:13;101895.0;;;9.64;72.11
36834;BME280;48003;52.084;5.224;2023-02-01T11:32:50;101903.0;;;9.49;72.11
36834;BME280;48003;52.084;5.224;2023-02-01T11:36:16;101898.0;;;9.65;71.55
36834;BME280;48003;52.084;5.224;2023-02-01T11:37:56;101887.0;;;9.55;70.91
36834;BME280;48003;52.084;5.224;2023-02-01T11:39:34;101880.0;;;9.6;70.77
36834;BME280;48003;52.084;5.224;2023-02-01T11:44:34;101899.0;;;9.72;70.36
36834;BME280;48003;52.084;5.224;2023-02-01T11:46:17;101902.0;;;9.61;69.64